Time;durP1;ratioP1;P1;durP2;ratioP2;P2;SDS_P1;SDS_P2;PMS_P1;PMS_P2;Temp;Humidity;BMP_temperature;BMP_pressure;BME280_temperature;BME280_humidity;BME280_pressure;Samples;Min_cycle;Max_cycle;Signal;HPM_P1;HPM_P2
2022/03/31 11:23:06;;;;;;;18.70;2.20;;;15.40;68.60;;;;;;5086908;27;1648433;-76
2022/03/31 11:25:33;;;;;;;21.20;2.10;;;16.30;63.00;;;;;;5123447;28;20019;-73
2022/03/31 11:28:07;;;;;;;18.38;2.50;;;16.40;61.80;;;;;;5116577;28;20039;-77
2022/03/31 11:30:33;;;;;;;21.58;2.33;;;16.50;61.80;;;;;;5125673;28;20031;-76
2022/03/31 11:32:59;;;;;;;22.55;3.08;;;16.70;61.20;;;;;;5120454;28;20032;-70
2022/03/31 11:35:27;;;;;;;24.33;2.30;;;16.90;61.50;;;;;;5117482;28;20027;-74
2022/03/31 11:37:55;;;;;;;30.00;2.28;;;16.90;60.80;;;;;;5121677;28;20374;-73
2022/03/31 11:40:28;;;;;;;27.58;2.38;;;16.90;61.50;;;;;;5124787;28;20032;-74
2022/03/31 11:42:57;;;;;;;16.38;2.20;;;16.90;61.10;;;;;;5118786;28;20089;-74
2022/03/31 11:45:33;;;;;;;20.65;2.38;;;17.00;61.40;;;;;;5123267;28;20023;-73
2022/03/31 11:48:04;;;;;;;12.43;1.83;;;17.00;60.70;;;;;;5102043;28;20512;-72
2022/03/31 11:50:31;;;;;;;21.70;2.30;;;16.90;61.00;;;;;;5119056;28;20131;-72
2022/03/31 11:52:58;;;;;;;8.77;1.80;;;16.90;61.30;;;;;;5125285;28;20382;-72
2022/03/31 11:55:24;;;;;;;11.13;1.90;;;17.00;61.00;;;;;;5123501;28;20024;-71
2022/03/31 11:57:55;;;;;;;14.93;1.77;;;17.00;60.90;;;;;;5127236;28;20111;-72
2022/03/31 12:00:22;;;;;;;22.80;2.17;;;17.00;61.10;;;;;;5117420;28;20020;-73
2022/03/31 12:03:07;;;;;;;9.60;2.28;;;17.00;62.10;;;;;;5111986;28;20052;-74
2022/03/31 12:05:33;;;;;;;13.00;1.88;;;17.10;60.60;;;;;;5104067;28;20023;-73
2022/03/31 12:08:00;;;;;;;26.77;2.92;;;17.20;60.40;;;;;;5117539;28;20080;-73
2022/03/31 12:10:30;;;;;;;22.02;2.42;;;17.10;60.30;;;;;;5116415;28;20524;-73
2022/03/31 12:12:59;;;;;;;14.85;1.98;;;17.00;59.90;;;;;;5097640;28;20039;-74
2022/03/31 12:15:27;;;;;;;22.13;2.80;;;16.90;59.50;;;;;;5114761;28;20020;-73
2022/03/31 12:18:07;;;;;;;14.50;2.22;;;16.90;59.30;;;;;;5093621;28;20497;-73
2022/03/31 12:20:36;;;;;;;15.05;2.22;;;16.80;59.40;;;;;;5120811;28;20030;-74
2022/03/31 12:23:15;;;;;;;25.15;2.42;;;16.70;59.30;;;;;;5121925;28;20040;-71
2022/03/31 12:25:41;;;;;;;14.70;1.92;;;16.70;59.10;;;;;;5112786;28;20024;-73
2022/03/31 12:28:08;;;;;;;8.10;1.40;;;16.60;58.80;;;;;;5125724;28;20170;-71
2022/03/31 12:30:48;;;;;;;14.05;1.95;;;16.60;58.70;;;;;;5119748;28;20019;-72
2022/03/31 12:33:20;;;;;;;8.52;1.40;;;16.50;58.40;;;;;;5120762;28;20086;-72
2022/03/31 12:36:13;;;;;;;11.93;1.90;;;16.50;58.10;;;;;;5100291;28;20051;-74
2022/03/31 12:38:48;;;;;;;15.27;2.33;;;16.50;57.80;;;;;;5101691;28;20039;-72
2022/03/31 12:41:23;;;;;;;17.40;2.20;;;16.60;58.70;;;;;;5093931;28;20019;-72
2022/03/31 12:44:10;;;;;;;12.75;1.60;;;16.70;59.00;;;;;;5098743;28;20042;-72
2022/03/31 12:46:53;;;;;;;11.07;1.58;;;16.70;58.90;;;;;;5098263;28;20024;-72
2022/03/31 12:49:24;;;;;;;13.00;1.90;;;16.80;59.30;;;;;;5087991;28;20016;-73
2022/03/31 12:51:50;;;;;;;13.38;1.80;;;16.80;59.10;;;;;;5111955;28;20036;-73
2022/03/31 12:54:26;;;;;;;13.15;2.00;;;16.80;59.40;;;;;;5095028;28;20076;-72
2022/03/31 12:56:55;;;;;;;14.75;1.90;;;16.90;59.60;;;;;;5113463;28;20062;-72
2022/03/31 12:59:26;;;;;;;8.52;1.90;;;16.80;58.80;;;;;;5093205;28;20035;-72
2022/03/31 13:02:12;;;;;;;12.55;1.58;;;16.90;58.50;;;;;;5093222;28;20032;-72
2022/03/31 13:04:42;;;;;;;8.00;1.42;;;16.90;59.20;;;;;;5097372;28;20012;-72
2022/03/31 13:07:13;;;;;;;9.15;1.50;;;16.90;57.00;;;;;;5088482;28;20057;-72
2022/03/31 13:09:39;;;;;;;6.05;1.42;;;16.90;57.50;;;;;;5103994;28;20048;-71
2022/03/31 13:12:11;;;;;;;10.00;2.13;;;16.90;57.50;;;;;;5108874;28;20077;-71
2022/03/31 13:14:43;;;;;;;14.65;1.83;;;16.90;57.00;;;;;;5085183;28;20046;-71
2022/03/31 13:17:11;;;;;;;26.80;2.90;;;16.90;58.90;;;;;;5094384;28;20031;-71
2022/03/31 13:19:37;;;;;;;8.32;1.75;;;16.90;59.10;;;;;;5110300;28;20230;-71
2022/03/31 13:22:05;;;;;;;14.57;2.50;;;16.80;58.90;;;;;;5092901;28;20134;-74
2022/03/31 13:24:31;;;;;;;19.70;1.80;;;16.80;59.90;;;;;;5093271;28;20073;-73
2022/03/31 13:26:57;;;;;;;13.43;1.65;;;16.70;59.50;;;;;;5106206;28;20031;-73
2022/03/31 13:29:23;;;;;;;6.78;1.70;;;16.70;59.60;;;;;;5098441;28;20559;-74
2022/03/31 13:31:53;;;;;;;8.63;1.50;;;16.70;59.70;;;;;;5105118;28;20036;-75
2022/03/31 13:34:29;;;;;;;7.22;1.30;;;16.70;59.80;;;;;;5094683;28;20024;-74
2022/03/31 13:36:59;;;;;;;12.25;1.77;;;16.70;59.50;;;;;;5094102;28;20043;-69
2022/03/31 13:39:26;;;;;;;7.78;1.42;;;16.70;61.10;;;;;;5111613;28;20023;-72
2022/03/31 13:41:52;;;;;;;7.35;1.70;;;16.90;59.90;;;;;;5104886;28;20036;-71
2022/03/31 13:44:17;;;;;;;5.72;1.50;;;16.90;59.40;;;;;;5092964;28;20028;-71
2022/03/31 13:46:46;;;;;;;5.90;1.50;;;16.90;58.60;;;;;;5095456;28;20027;-71
2022/03/31 13:49:13;;;;;;;13.63;2.15;;;17.00;59.80;;;;;;5102652;28;20062;-71
2022/03/31 13:51:43;;;;;;;10.45;1.67;;;17.00;59.80;;;;;;5103343;28;20611;-71
2022/03/31 13:54:08;;;;;;;;;;;17.00;58.40;;;;;;5109629;28;20028;-71
2022/03/31 13:56:36;;;;;;;21.05;2.13;;;17.00;59.10;;;;;;5097778;28;19912;-73
2022/03/31 14:01:49;;;;;;;17.67;1.77;;;17.00;59.90;;;;;;5097167;28;20436;-72
2022/03/31 14:04:15;;;;;;;17.45;1.52;;;17.00;59.30;;;;;;5094205;28;20086;-73
2022/03/31 14:06:41;;;;;;;15.52;1.98;;;17.10;58.30;;;;;;5105364;28;20082;-72
2022/03/31 14:09:07;;;;;;;23.52;1.63;;;17.00;59.40;;;;;;5093176;28;20527;-71
2022/03/31 14:11:34;;;;;;;20.83;2.03;;;17.00;59.80;;;;;;5090171;28;20036;-72
2022/03/31 14:14:01;;;;;;;11.30;1.67;;;17.00;60.20;;;;;;5101935;28;20096;-73
2022/03/31 14:16:29;;;;;;;19.98;1.92;;;17.00;59.40;;;;;;5108622;28;20023;-72
2022/03/31 14:18:55;;;;;;;21.48;2.53;;;16.90;59.90;;;;;;5100906;28;20028;-71
2022/03/31 14:21:22;;;;;;;12.68;1.58;;;16.90;60.00;;;;;;5099510;28;20031;-73
2022/03/31 14:23:49;;;;;;;19.60;1.60;;;16.90;58.60;;;;;;5112486;28;20028;-73
2022/03/31 14:26:15;;;;;;;27.33;2.08;;;17.00;59.60;;;;;;5110007;28;20531;-73
2022/03/31 14:28:43;;;;;;;17.65;2.05;;;16.90;60.60;;;;;;5081025;28;20020;-70
2022/03/31 14:31:11;;;;;;;15.10;1.67;;;17.00;59.30;;;;;;5073772;28;20036;-69
2022/03/31 14:33:38;;;;;;;17.00;1.75;;;17.00;59.00;;;;;;5091969;28;20028;-70
2022/03/31 14:36:04;;;;;;;17.27;1.50;;;17.10;60.30;;;;;;5105086;28;20012;-71
2022/03/31 14:38:30;;;;;;;11.43;1.80;;;17.20;60.50;;;;;;5101042;28;20031;-69
2022/03/31 14:40:58;;;;;;;8.00;1.42;;;17.20;60.50;;;;;;5101824;28;20028;-70
2022/03/31 14:43:27;;;;;;;13.35;1.50;;;17.30;61.00;;;;;;5102373;28;20445;-70
2022/03/31 14:45:54;;;;;;;10.60;1.50;;;17.40;60.80;;;;;;5101661;28;20020;-71
2022/03/31 14:48:20;;;;;;;7.72;1.23;;;17.50;61.00;;;;;;5100815;28;20049;-70
2022/03/31 14:50:46;;;;;;;6.90;1.13;;;17.70;61.10;;;;;;5080294;28;20029;-70
2022/03/31 14:53:12;;;;;;;10.82;1.60;;;17.80;60.60;;;;;;5094843;28;20031;-69
2022/03/31 14:55:38;;;;;;;10.80;1.40;;;18.00;60.30;;;;;;5105505;28;20016;-69
2022/03/31 14:58:07;;;;;;;5.70;1.65;;;18.10;59.50;;;;;;5096942;28;20031;-71
2022/03/31 15:00:34;;;;;;;9.98;1.58;;;18.30;59.50;;;;;;5106994;28;20038;-71
2022/03/31 15:02:59;;;;;;;6.55;1.38;;;18.40;59.20;;;;;;5099444;28;20475;-72
2022/03/31 15:05:26;;;;;;;9.35;1.52;;;18.60;59.00;;;;;;5081338;28;20035;-70
2022/03/31 15:07:53;;;;;;;6.10;1.40;;;18.70;58.80;;;;;;5109072;28;20063;-71
2022/03/31 15:15:47;;;;;;;10.20;1.20;;;19.10;57.90;;;;;;5104908;28;20043;-71
2022/03/31 15:18:12;;;;;;;7.93;1.08;;;19.20;57.50;;;;;;5103210;28;20028;-70
2022/03/31 15:20:38;;;;;;;7.60;1.35;;;19.40;57.30;;;;;;5103723;28;20051;-71
2022/03/31 15:23:04;;;;;;;6.07;1.08;;;19.50;57.10;;;;;;5109447;28;20047;-70
2022/03/31 15:25:29;;;;;;;4.85;1.00;;;19.60;56.70;;;;;;5097984;28;20077;-72
2022/03/31 15:27:55;;;;;;;8.30;1.20;;;19.70;56.60;;;;;;5089674;28;20101;-70
2022/03/31 15:30:22;;;;;;;5.97;1.45;;;19.70;56.00;;;;;;5097423;28;20449;-71
2022/03/31 15:32:48;;;;;;;7.93;1.10;;;19.80;55.70;;;;;;5098920;28;20035;-71
2022/03/31 15:35:16;;;;;;;5.57;0.93;;;19.90;55.30;;;;;;5092545;28;20027;-70
2022/03/31 15:37:42;;;;;;;5.00;1.30;;;20.00;55.10;;;;;;5093525;28;20082;-70
2022/03/31 15:40:10;;;;;;;6.82;1.13;;;20.00;54.70;;;;;;5103142;28;20028;-70
2022/03/31 15:42:35;;;;;;;5.05;0.80;;;20.10;54.30;;;;;;5098642;28;20123;-72
2022/03/31 15:45:01;;;;;;;6.35;1.05;;;20.10;54.10;;;;;;5092313;28;20107;-72
2022/03/31 15:47:28;;;;;;;6.82;0.95;;;20.20;54.10;;;;;;5092607;28;20053;-71
2022/03/31 15:49:54;;;;;;;4.57;1.00;;;20.20;53.90;;;;;;5096402;28;20043;-73
2022/03/31 15:52:20;;;;;;;6.65;1.10;;;20.20;53.90;;;;;;5099790;28;20390;-72
2022/03/31 15:54:45;;;;;;;8.10;1.25;;;20.30;53.80;;;;;;5092723;28;20045;-72
2022/03/31 15:57:11;;;;;;;5.80;0.98;;;20.30;53.60;;;;;;5100388;28;20521;-72
2022/03/31 15:59:37;;;;;;;6.18;1.15;;;20.40;53.50;;;;;;5090900;28;20466;-73
2022/03/31 16:02:04;;;;;;;3.63;0.85;;;20.40;53.10;;;;;;5090839;28;20050;-72
2022/03/31 16:04:30;;;;;;;3.70;1.08;;;20.40;53.00;;;;;;5101245;28;20501;-72
2022/03/31 16:06:55;;;;;;;4.22;1.15;;;20.40;52.90;;;;;;5093945;28;20036;-72
2022/03/31 16:09:21;;;;;;;5.53;1.00;;;20.40;53.10;;;;;;5093699;28;20024;-73
2022/03/31 16:11:49;;;;;;;8.77;1.17;;;20.40;52.80;;;;;;5094756;28;20020;-72
2022/03/31 16:14:15;;;;;;;2.28;0.95;;;20.50;52.60;;;;;;5094570;28;20042;-72
2022/03/31 16:16:40;;;;;;;5.32;1.23;;;20.60;52.30;;;;;;5087879;28;20490;-72
2022/03/31 16:19:06;;;;;;;3.78;0.77;;;20.70;52.10;;;;;;5099644;28;20035;-72
2022/03/31 16:21:32;;;;;;;3.75;1.02;;;20.80;51.60;;;;;;5098514;28;20093;-72
2022/03/31 16:23:59;;;;;;;5.22;1.20;;;20.90;51.30;;;;;;5114716;28;20374;-73
2022/03/31 16:26:26;;;;;;;7.40;1.38;;;20.90;51.10;;;;;;5101851;28;20400;-73
2022/03/31 16:28:52;;;;;;;4.70;1.27;;;20.90;51.10;;;;;;5098636;28;20036;-72
2022/03/31 16:31:19;;;;;;;5.20;0.85;;;21.00;51.10;;;;;;5110558;28;20027;-72
2022/03/31 16:33:45;;;;;;;4.45;0.90;;;21.00;50.70;;;;;;5105328;28;20024;-72
2022/03/31 16:36:14;;;;;;;4.00;1.10;;;21.20;50.30;;;;;;5098954;28;20024;-72
2022/03/31 16:38:41;;;;;;;6.78;1.13;;;21.50;49.60;;;;;;5099442;28;20475;-71
2022/03/31 16:41:08;;;;;;;4.72;0.95;;;21.80;48.50;;;;;;5095768;28;20127;-71
2022/03/31 16:43:38;;;;;;;2.85;0.80;;;22.20;47.20;;;;;;5111680;28;20039;-71
2022/03/31 16:46:05;;;;;;;3.25;1.08;;;22.40;46.60;;;;;;5090810;28;20024;-71
2022/03/31 16:48:31;;;;;;;8.73;1.17;;;22.50;45.90;;;;;;5107445;28;20164;-72
2022/03/31 16:50:57;;;;;;;4.57;1.00;;;22.60;45.70;;;;;;5082844;28;20567;-71
2022/03/31 16:53:23;;;;;;;6.32;0.90;;;22.60;45.80;;;;;;5103752;28;20026;-72
2022/03/31 16:55:49;;;;;;;7.18;1.17;;;22.60;46.00;;;;;;5105155;28;20024;-72
2022/03/31 16:58:15;;;;;;;3.55;0.70;;;22.50;46.10;;;;;;5107834;28;20728;-72
2022/03/31 17:00:41;;;;;;;5.65;0.90;;;22.40;46.40;;;;;;5105111;28;20023;-72
2022/03/31 17:03:08;;;;;;;5.78;1.13;;;22.30;46.60;;;;;;5080274;28;20470;-72
2022/03/31 17:05:35;;;;;;;4.53;1.10;;;22.30;46.90;;;;;;5106983;28;20016;-73
2022/03/31 17:08:02;;;;;;;4.25;0.82;;;22.20;47.10;;;;;;5099727;28;20502;-72
2022/03/31 17:10:28;;;;;;;5.07;1.15;;;22.20;47.30;;;;;;5100979;28;20024;-71
2022/03/31 17:12:54;;;;;;;5.10;0.88;;;22.00;47.60;;;;;;5096794;28;20024;-71
2022/03/31 17:15:21;;;;;;;4.50;1.17;;;21.90;47.80;;;;;;5082817;28;20069;-71
2022/03/31 17:17:48;;;;;;;4.70;0.82;;;21.90;48.20;;;;;;5110383;28;20031;-71
2022/03/31 17:20:14;;;;;;;5.57;0.95;;;21.80;48.50;;;;;;5100212;28;20034;-72
2022/03/31 17:22:41;;;;;;;4.10;0.93;;;21.80;48.60;;;;;;5075079;28;20074;-73
2022/03/31 17:25:07;;;;;;;5.05;0.82;;;21.70;48.70;;;;;;5091028;28;20411;-72
2022/03/31 17:27:34;;;;;;;2.90;0.70;;;21.70;48.90;;;;;;5091610;28;20028;-72
2022/03/31 17:30:00;;;;;;;4.13;1.00;;;21.60;49.00;;;;;;5091978;28;20494;-72
2022/03/31 17:32:27;;;;;;;4.47;1.20;;;21.50;49.30;;;;;;5076142;28;20497;-72
2022/03/31 17:34:53;;;;;;;4.03;0.88;;;21.40;49.50;;;;;;5072599;28;20029;-73
2022/03/31 17:37:19;;;;;;;3.00;1.23;;;21.40;50.50;;;;;;5078515;28;20024;-72
2022/03/31 17:39:45;;;;;;;4.40;0.90;;;21.30;50.00;;;;;;5091289;28;20587;-72
2022/03/31 17:42:11;;;;;;;2.15;0.82;;;21.20;50.30;;;;;;5082978;28;20124;-72
2022/03/31 17:44:37;;;;;;;3.72;0.98;;;21.10;50.50;;;;;;5088982;28;20107;-72
2022/03/31 17:47:03;;;;;;;3.42;0.90;;;21.00;50.80;;;;;;5091949;28;20024;-72
2022/03/31 17:49:32;;;;;;;5.25;0.90;;;20.90;51.20;;;;;;5092774;28;20024;-71
2022/03/31 17:52:00;;;;;;;2.70;0.80;;;20.70;51.50;;;;;;5088257;28;20149;-69
2022/03/31 17:54:27;;;;;;;3.10;1.10;;;20.50;52.00;;;;;;5081412;28;20847;-70
2022/03/31 17:56:53;;;;;;;4.45;0.90;;;20.40;52.50;;;;;;5078398;28;20052;-70
2022/03/31 17:59:19;;;;;;;2.58;1.00;;;20.20;53.00;;;;;;5083086;28;20039;-70
2022/03/31 18:01:46;;;;;;;2.83;0.80;;;20.00;53.30;;;;;;5077237;28;20032;-70
2022/03/31 18:04:12;;;;;;;3.60;1.00;;;19.90;53.80;;;;;;5072495;28;20028;-71
2022/03/31 18:06:38;;;;;;;4.43;1.10;;;19.80;54.30;;;;;;5072091;28;20078;-70
2022/03/31 18:09:05;;;;;;;3.15;0.75;;;19.60;54.60;;;;;;5072106;28;20119;-70
2022/03/31 18:11:31;;;;;;;4.05;0.80;;;19.50;54.80;;;;;;5080467;28;20028;-70
2022/03/31 18:13:57;;;;;;;3.08;0.88;;;19.30;55.10;;;;;;5087796;28;20031;-69
2022/03/31 18:16:23;;;;;;;3.83;0.80;;;19.20;55.50;;;;;;5084265;28;20025;-70
2022/03/31 18:18:49;;;;;;;3.15;1.00;;;19.20;56.00;;;;;;5083415;28;20550;-70
2022/03/31 18:21:15;;;;;;;3.63;0.80;;;19.00;56.10;;;;;;5083239;28;20032;-71
2022/03/31 18:23:41;;;;;;;4.43;0.90;;;19.00;56.20;;;;;;5105433;28;20722;-71
